sensor_id;sensor_type;location;lat;lon;timestamp;P1;durP1;ratioP1;P2;durP2;ratioP2
68942;SDS011;60852;52.190;4.422;2024-03-07T00:02:08;53.60;;;51.18;;
68942;SDS011;60852;52.190;4.422;2024-03-07T00:04:34;53.66;;;51.55;;
68942;SDS011;60852;52.190;4.422;2024-03-07T00:07:04;54.30;;;51.65;;
68942;SDS011;60852;52.190;4.422;2024-03-07T00:09:33;54.13;;;51.91;;
68942;SDS011;60852;52.190;4.422;2024-03-07T00:12:03;56.03;;;53.18;;
68942;SDS011;60852;52.190;4.422;2024-03-07T00:14:29;55.51;;;53.17;;
68942;SDS011;60852;52.190;4.422;2024-03-07T00:16:57;54.92;;;52.50;;
68942;SDS011;60852;52.190;4.422;2024-03-07T00:19:24;54.86;;;52.26;;
68942;SDS011;60852;52.190;4.422;2024-03-07T00:21:53;55.03;;;52.19;;
68942;SDS011;60852;52.190;4.422;2024-03-07T00:24:19;52.56;;;50.30;;
68942;SDS011;60852;52.190;4.422;2024-03-07T00:26:46;53.64;;;50.97;;
68942;SDS011;60852;52.190;4.422;2024-03-07T00:29:11;52.96;;;50.68;;
68942;SDS011;60852;52.190;4.422;2024-03-07T00:31:37;52.47;;;50.29;;
68942;SDS011;60852;52.190;4.422;2024-03-07T00:34:02;52.60;;;50.45;;
68942;SDS011;60852;52.190;4.422;2024-03-07T00:36:27;51.31;;;49.54;;
68942;SDS011;60852;52.190;4.422;2024-03-07T00:38:53;52.14;;;49.75;;
68942;SDS011;60852;52.190;4.422;2024-03-07T00:41:19;53.76;;;51.06;;
68942;SDS011;60852;52.190;4.422;2024-03-07T00:43:52;52.51;;;50.66;;
68942;SDS011;60852;52.190;4.422;2024-03-07T00:46:19;52.70;;;50.61;;
68942;SDS011;60852;52.190;4.422;2024-03-07T00:48:44;53.38;;;51.05;;
68942;SDS011;60852;52.190;4.422;2024-03-07T00:51:11;53.04;;;51.12;;
68942;SDS011;60852;52.190;4.422;2024-03-07T00:53:36;54.11;;;51.63;;
68942;SDS011;60852;52.190;4.422;2024-03-07T00:56:02;53.29;;;51.33;;
68942;SDS011;60852;52.190;4.422;2024-03-07T00:58:28;53.97;;;51.59;;
68942;SDS011;60852;52.190;4.422;2024-03-07T01:00:53;54.49;;;52.02;;
68942;SDS011;60852;52.190;4.422;2024-03-07T01:03:19;54.71;;;52.10;;
68942;SDS011;60852;52.190;4.422;2024-03-07T01:05:44;54.59;;;52.02;;
68942;SDS011;60852;52.190;4.422;2024-03-07T01:08:10;54.42;;;52.02;;
68942;SDS011;60852;52.190;4.422;2024-03-07T01:10:36;55.31;;;52.56;;
68942;SDS011;60852;52.190;4.422;2024-03-07T01:13:01;56.16;;;53.25;;
68942;SDS011;60852;52.190;4.422;2024-03-07T01:15:30;54.94;;;52.23;;
68942;SDS011;60852;52.190;4.422;2024-03-07T01:17:57;54.19;;;52.19;;
68942;SDS011;60852;52.190;4.422;2024-03-07T01:20:23;54.84;;;52.47;;
68942;SDS011;60852;52.190;4.422;2024-03-07T01:22:50;54.48;;;51.99;;
68942;SDS011;60852;52.190;4.422;2024-03-07T01:25:16;54.56;;;52.44;;
68942;SDS011;60852;52.190;4.422;2024-03-07T01:27:43;53.63;;;51.83;;
68942;SDS011;60852;52.190;4.422;2024-03-07T01:30:09;54.87;;;52.78;;
68942;SDS011;60852;52.190;4.422;2024-03-07T01:32:35;53.73;;;51.85;;
68942;SDS011;60852;52.190;4.422;2024-03-07T01:35:01;55.16;;;53.12;;
68942;SDS011;60852;52.190;4.422;2024-03-07T01:37:26;54.97;;;52.76;;
68942;SDS011;60852;52.190;4.422;2024-03-07T01:39:52;55.99;;;53.86;;
68942;SDS011;60852;52.190;4.422;2024-03-07T01:42:18;58.06;;;55.62;;
68942;SDS011;60852;52.190;4.422;2024-03-07T01:44:43;56.73;;;54.47;;
68942;SDS011;60852;52.190;4.422;2024-03-07T01:47:09;55.30;;;53.33;;
68942;SDS011;60852;52.190;4.422;2024-03-07T01:49:36;56.02;;;53.99;;
68942;SDS011;60852;52.190;4.422;2024-03-07T01:52:04;58.36;;;55.75;;
68942;SDS011;60852;52.190;4.422;2024-03-07T01:54:30;59.21;;;56.49;;
68942;SDS011;60852;52.190;4.422;2024-03-07T01:56:57;60.17;;;57.03;;
68942;SDS011;60852;52.190;4.422;2024-03-07T01:59:23;59.17;;;56.68;;
68942;SDS011;60852;52.190;4.422;2024-03-07T02:01:50;59.47;;;57.07;;
68942;SDS011;60852;52.190;4.422;2024-03-07T02:04:16;58.25;;;55.62;;
68942;SDS011;60852;52.190;4.422;2024-03-07T02:06:42;59.81;;;56.99;;
68942;SDS011;60852;52.190;4.422;2024-03-07T02:09:07;59.22;;;57.06;;
68942;SDS011;60852;52.190;4.422;2024-03-07T02:11:33;60.74;;;57.93;;
68942;SDS011;60852;52.190;4.422;2024-03-07T02:13:59;58.57;;;56.54;;
68942;SDS011;60852;52.190;4.422;2024-03-07T02:16:24;59.34;;;57.07;;
68942;SDS011;60852;52.190;4.422;2024-03-07T02:18:51;60.25;;;57.72;;
68942;SDS011;60852;52.190;4.422;2024-03-07T02:21:16;60.35;;;57.58;;
68942;SDS011;60852;52.190;4.422;2024-03-07T02:23:42;61.38;;;58.30;;
68942;SDS011;60852;52.190;4.422;2024-03-07T02:26:07;58.27;;;56.18;;
68942;SDS011;60852;52.190;4.422;2024-03-07T02:28:35;59.80;;;57.04;;
68942;SDS011;60852;52.190;4.422;2024-03-07T02:31:01;60.93;;;58.46;;
68942;SDS011;60852;52.190;4.422;2024-03-07T02:33:27;59.13;;;56.98;;
68942;SDS011;60852;52.190;4.422;2024-03-07T02:35:52;60.77;;;58.08;;
68942;SDS011;60852;52.190;4.422;2024-03-07T02:38:18;61.91;;;59.51;;
68942;SDS011;60852;52.190;4.422;2024-03-07T02:40:44;61.49;;;58.70;;
68942;SDS011;60852;52.190;4.422;2024-03-07T02:43:11;62.35;;;59.19;;
68942;SDS011;60852;52.190;4.422;2024-03-07T02:45:37;62.04;;;58.84;;
68942;SDS011;60852;52.190;4.422;2024-03-07T02:48:02;59.93;;;57.66;;
68942;SDS011;60852;52.190;4.422;2024-03-07T02:50:29;62.08;;;58.88;;
68942;SDS011;60852;52.190;4.422;2024-03-07T02:52:55;60.92;;;58.35;;
68942;SDS011;60852;52.190;4.422;2024-03-07T02:55:20;61.86;;;59.32;;
68942;SDS011;60852;52.190;4.422;2024-03-07T02:57:46;61.87;;;59.06;;
68942;SDS011;60852;52.190;4.422;2024-03-07T03:00:11;60.38;;;57.90;;
68942;SDS011;60852;52.190;4.422;2024-03-07T03:02:51;62.13;;;58.91;;
68942;SDS011;60852;52.190;4.422;2024-03-07T03:05:17;61.17;;;58.17;;
68942;SDS011;60852;52.190;4.422;2024-03-07T03:07:43;60.85;;;58.25;;
68942;SDS011;60852;52.190;4.422;2024-03-07T03:10:26;59.56;;;57.18;;
68942;SDS011;60852;52.190;4.422;2024-03-07T03:12:57;61.05;;;58.34;;
68942;SDS011;60852;52.190;4.422;2024-03-07T03:15:24;61.46;;;58.52;;
68942;SDS011;60852;52.190;4.422;2024-03-07T03:17:50;62.55;;;59.93;;
68942;SDS011;60852;52.190;4.422;2024-03-07T03:20:15;62.18;;;59.28;;
68942;SDS011;60852;52.190;4.422;2024-03-07T03:22:51;63.47;;;60.01;;
68942;SDS011;60852;52.190;4.422;2024-03-07T03:25:20;63.95;;;60.81;;
68942;SDS011;60852;52.190;4.422;2024-03-07T03:27:49;63.21;;;60.22;;
68942;SDS011;60852;52.190;4.422;2024-03-07T03:30:15;64.41;;;61.25;;
68942;SDS011;60852;52.190;4.422;2024-03-07T03:32:46;62.16;;;59.81;;
68942;SDS011;60852;52.190;4.422;2024-03-07T03:35:13;63.46;;;60.72;;
68942;SDS011;60852;52.190;4.422;2024-03-07T03:37:43;65.67;;;62.16;;
68942;SDS011;60852;52.190;4.422;2024-03-07T03:40:09;64.66;;;61.66;;
68942;SDS011;60852;52.190;4.422;2024-03-07T03:42:36;66.41;;;63.11;;
68942;SDS011;60852;52.190;4.422;2024-03-07T03:45:06;66.63;;;62.84;;
68942;SDS011;60852;52.190;4.422;2024-03-07T03:47:36;65.61;;;62.03;;
68942;SDS011;60852;52.190;4.422;2024-03-07T03:50:03;65.00;;;62.05;;
68942;SDS011;60852;52.190;4.422;2024-03-07T03:52:29;65.76;;;61.60;;
68942;SDS011;60852;52.190;4.422;2024-03-07T03:54:54;63.78;;;60.88;;
68942;SDS011;60852;52.190;4.422;2024-03-07T03:57:20;65.18;;;61.88;;
68942;SDS011;60852;52.190;4.422;2024-03-07T03:59:45;64.59;;;61.51;;
68942;SDS011;60852;52.190;4.422;2024-03-07T04:02:10;64.15;;;61.23;;
68942;SDS011;60852;52.190;4.422;2024-03-07T04:04:42;64.37;;;61.33;;
68942;SDS011;60852;52.190;4.422;2024-03-07T04:07:08;65.07;;;61.63;;
68942;SDS011;60852;52.190;4.422;2024-03-07T04:09:33;62.32;;;59.54;;
68942;SDS011;60852;52.190;4.422;2024-03-07T04:11:59;62.69;;;60.14;;
68942;SDS011;60852;52.190;4.422;2024-03-07T04:14:25;63.95;;;60.91;;
68942;SDS011;60852;52.190;4.422;2024-03-07T04:16:51;66.02;;;62.40;;
68942;SDS011;60852;52.190;4.422;2024-03-07T04:19:17;64.70;;;61.86;;
68942;SDS011;60852;52.190;4.422;2024-03-07T04:21:45;63.76;;;61.06;;
68942;SDS011;60852;52.190;4.422;2024-03-07T04:24:11;64.09;;;61.46;;
68942;SDS011;60852;52.190;4.422;2024-03-07T04:26:37;66.34;;;63.13;;
68942;SDS011;60852;52.190;4.422;2024-03-07T04:29:03;67.24;;;63.40;;
68942;SDS011;60852;52.190;4.422;2024-03-07T04:31:28;65.00;;;61.74;;
68942;SDS011;60852;52.190;4.422;2024-03-07T04:33:54;64.52;;;61.67;;
68942;SDS011;60852;52.190;4.422;2024-03-07T04:36:19;62.96;;;60.45;;
68942;SDS011;60852;52.190;4.422;2024-03-07T04:38:45;65.86;;;62.57;;
68942;SDS011;60852;52.190;4.422;2024-03-07T04:41:11;64.73;;;61.72;;
68942;SDS011;60852;52.190;4.422;2024-03-07T04:43:36;63.01;;;60.37;;
68942;SDS011;60852;52.190;4.422;2024-03-07T04:46:02;63.73;;;61.54;;
68942;SDS011;60852;52.190;4.422;2024-03-07T04:48:28;62.33;;;60.44;;
68942;SDS011;60852;52.190;4.422;2024-03-07T04:50:53;64.21;;;61.38;;
68942;SDS011;60852;52.190;4.422;2024-03-07T04:53:19;66.13;;;63.21;;
68942;SDS011;60852;52.190;4.422;2024-03-07T04:55:44;66.34;;;62.89;;
68942;SDS011;60852;52.190;4.422;2024-03-07T04:58:10;65.28;;;62.37;;
68942;SDS011;60852;52.190;4.422;2024-03-07T05:00:35;66.76;;;63.15;;
68942;SDS011;60852;52.190;4.422;2024-03-07T05:03:00;64.51;;;61.89;;
68942;SDS011;60852;52.190;4.422;2024-03-07T05:05:26;64.73;;;61.95;;
68942;SDS011;60852;52.190;4.422;2024-03-07T05:07:52;65.00;;;62.72;;
68942;SDS011;60852;52.190;4.422;2024-03-07T05:10:18;65.73;;;62.86;;
68942;SDS011;60852;52.190;4.422;2024-03-07T05:12:43;65.97;;;63.02;;
68942;SDS011;60852;52.190;4.422;2024-03-07T05:15:09;67.07;;;63.42;;
68942;SDS011;60852;52.190;4.422;2024-03-07T05:17:35;66.78;;;63.58;;
68942;SDS011;60852;52.190;4.422;2024-03-07T05:20:03;65.98;;;62.76;;
68942;SDS011;60852;52.190;4.422;2024-03-07T05:22:35;65.65;;;62.74;;
68942;SDS011;60852;52.190;4.422;2024-03-07T05:25:05;66.47;;;63.53;;
68942;SDS011;60852;52.190;4.422;2024-03-07T05:27:31;66.75;;;63.58;;
68942;SDS011;60852;52.190;4.422;2024-03-07T05:29:58;65.10;;;62.61;;
68942;SDS011;60852;52.190;4.422;2024-03-07T05:32:25;66.85;;;64.08;;
68942;SDS011;60852;52.190;4.422;2024-03-07T05:34:51;67.23;;;64.10;;
68942;SDS011;60852;52.190;4.422;2024-03-07T05:37:20;66.86;;;63.89;;
68942;SDS011;60852;52.190;4.422;2024-03-07T05:39:47;63.22;;;60.88;;
68942;SDS011;60852;52.190;4.422;2024-03-07T05:42:13;63.55;;;61.30;;
68942;SDS011;60852;52.190;4.422;2024-03-07T05:44:42;64.95;;;62.31;;
68942;SDS011;60852;52.190;4.422;2024-03-07T05:47:09;65.11;;;62.38;;
68942;SDS011;60852;52.190;4.422;2024-03-07T05:49:35;63.88;;;61.56;;
68942;SDS011;60852;52.190;4.422;2024-03-07T05:52:02;66.45;;;63.63;;
68942;SDS011;60852;52.190;4.422;2024-03-07T05:54:28;66.49;;;63.73;;
68942;SDS011;60852;52.190;4.422;2024-03-07T05:56:56;64.85;;;62.42;;
68942;SDS011;60852;52.190;4.422;2024-03-07T05:59:22;65.17;;;62.04;;
68942;SDS011;60852;52.190;4.422;2024-03-07T06:01:48;66.28;;;63.02;;
68942;SDS011;60852;52.190;4.422;2024-03-07T06:04:13;64.61;;;62.20;;
68942;SDS011;60852;52.190;4.422;2024-03-07T06:06:40;65.47;;;62.29;;
68942;SDS011;60852;52.190;4.422;2024-03-07T06:09:09;64.09;;;61.53;;
68942;SDS011;60852;52.190;4.422;2024-03-07T06:11:35;63.56;;;60.80;;
68942;SDS011;60852;52.190;4.422;2024-03-07T06:14:05;63.98;;;61.34;;
68942;SDS011;60852;52.190;4.422;2024-03-07T06:16:32;66.05;;;62.95;;
68942;SDS011;60852;52.190;4.422;2024-03-07T06:19:00;63.74;;;61.24;;
68942;SDS011;60852;52.190;4.422;2024-03-07T06:21:27;63.61;;;60.86;;
68942;SDS011;60852;52.190;4.422;2024-03-07T06:23:55;64.31;;;61.45;;
68942;SDS011;60852;52.190;4.422;2024-03-07T06:26:34;63.21;;;60.69;;
68942;SDS011;60852;52.190;4.422;2024-03-07T06:29:09;65.15;;;62.32;;
68942;SDS011;60852;52.190;4.422;2024-03-07T06:31:36;68.88;;;64.97;;
68942;SDS011;60852;52.190;4.422;2024-03-07T06:34:02;64.91;;;62.01;;
68942;SDS011;60852;52.190;4.422;2024-03-07T06:36:29;64.21;;;61.69;;
68942;SDS011;60852;52.190;4.422;2024-03-07T06:38:55;66.86;;;63.74;;
68942;SDS011;60852;52.190;4.422;2024-03-07T06:41:20;68.55;;;65.61;;
68942;SDS011;60852;52.190;4.422;2024-03-07T06:43:46;68.27;;;64.55;;
68942;SDS011;60852;52.190;4.422;2024-03-07T06:46:12;66.83;;;63.49;;
68942;SDS011;60852;52.190;4.422;2024-03-07T06:48:38;65.20;;;62.41;;
68942;SDS011;60852;52.190;4.422;2024-03-07T06:51:05;65.70;;;62.51;;
68942;SDS011;60852;52.190;4.422;2024-03-07T06:53:31;65.24;;;62.02;;
68942;SDS011;60852;52.190;4.422;2024-03-07T06:55:57;65.34;;;62.57;;
68942;SDS011;60852;52.190;4.422;2024-03-07T06:58:23;68.03;;;64.74;;
68942;SDS011;60852;52.190;4.422;2024-03-07T07:00:48;64.79;;;62.14;;
68942;SDS011;60852;52.190;4.422;2024-03-07T07:03:20;64.63;;;61.75;;
68942;SDS011;60852;52.190;4.422;2024-03-07T07:05:46;64.44;;;61.88;;
68942;SDS011;60852;52.190;4.422;2024-03-07T07:08:12;64.63;;;61.63;;
68942;SDS011;60852;52.190;4.422;2024-03-07T07:10:41;65.21;;;62.24;;
68942;SDS011;60852;52.190;4.422;2024-03-07T07:13:07;64.07;;;61.10;;
68942;SDS011;60852;52.190;4.422;2024-03-07T07:15:36;63.57;;;60.86;;
68942;SDS011;60852;52.190;4.422;2024-03-07T07:18:02;64.84;;;62.36;;
68942;SDS011;60852;52.190;4.422;2024-03-07T07:20:28;65.08;;;62.39;;
68942;SDS011;60852;52.190;4.422;2024-03-07T07:22:54;65.27;;;62.82;;
68942;SDS011;60852;52.190;4.422;2024-03-07T07:25:20;64.73;;;62.02;;
68942;SDS011;60852;52.190;4.422;2024-03-07T07:27:47;66.94;;;63.56;;
68942;SDS011;60852;52.190;4.422;2024-03-07T07:30:15;65.59;;;62.80;;
68942;SDS011;60852;52.190;4.422;2024-03-07T07:32:42;65.88;;;62.73;;
68942;SDS011;60852;52.190;4.422;2024-03-07T07:35:08;64.99;;;62.44;;
68942;SDS011;60852;52.190;4.422;2024-03-07T07:40:07;67.26;;;64.32;;
68942;SDS011;60852;52.190;4.422;2024-03-07T07:42:37;66.82;;;63.79;;
68942;SDS011;60852;52.190;4.422;2024-03-07T07:45:10;65.96;;;63.29;;
68942;SDS011;60852;52.190;4.422;2024-03-07T07:47:42;65.67;;;62.87;;
68942;SDS011;60852;52.190;4.422;2024-03-07T07:50:10;66.62;;;63.87;;
68942;SDS011;60852;52.190;4.422;2024-03-07T07:52:44;63.88;;;61.74;;
68942;SDS011;60852;52.190;4.422;2024-03-07T07:55:13;66.93;;;64.35;;
68942;SDS011;60852;52.190;4.422;2024-03-07T07:57:46;66.42;;;64.29;;
68942;SDS011;60852;52.190;4.422;2024-03-07T08:00:20;68.39;;;66.00;;
68942;SDS011;60852;52.190;4.422;2024-03-07T08:02:54;69.43;;;66.22;;
68942;SDS011;60852;52.190;4.422;2024-03-07T08:05:25;68.73;;;65.39;;
68942;SDS011;60852;52.190;4.422;2024-03-07T08:08:03;66.88;;;64.02;;
68942;SDS011;60852;52.190;4.422;2024-03-07T08:10:32;65.70;;;63.33;;
68942;SDS011;60852;52.190;4.422;2024-03-07T08:12:58;64.00;;;61.50;;
68942;SDS011;60852;52.190;4.422;2024-03-07T08:15:27;63.19;;;60.73;;
68942;SDS011;60852;52.190;4.422;2024-03-07T08:17:54;64.07;;;61.86;;
68942;SDS011;60852;52.190;4.422;2024-03-07T08:20:21;62.52;;;60.34;;
68942;SDS011;60852;52.190;4.422;2024-03-07T08:22:49;63.26;;;60.68;;
68942;SDS011;60852;52.190;4.422;2024-03-07T08:25:21;61.46;;;58.87;;
68942;SDS011;60852;52.190;4.422;2024-03-07T08:27:48;61.58;;;58.71;;
68942;SDS011;60852;52.190;4.422;2024-03-07T08:30:15;60.29;;;57.78;;
68942;SDS011;60852;52.190;4.422;2024-03-07T08:32:44;58.96;;;56.92;;
68942;SDS011;60852;52.190;4.422;2024-03-07T08:35:11;58.44;;;56.30;;
68942;SDS011;60852;52.190;4.422;2024-03-07T08:37:41;57.77;;;55.89;;
68942;SDS011;60852;52.190;4.422;2024-03-07T08:40:08;58.07;;;55.71;;
68942;SDS011;60852;52.190;4.422;2024-03-07T08:42:39;59.27;;;56.41;;
68942;SDS011;60852;52.190;4.422;2024-03-07T08:45:07;56.65;;;54.53;;
68942;SDS011;60852;52.190;4.422;2024-03-07T08:47:35;57.26;;;55.04;;
68942;SDS011;60852;52.190;4.422;2024-03-07T08:50:02;57.45;;;55.59;;
68942;SDS011;60852;52.190;4.422;2024-03-07T08:52:33;56.95;;;54.86;;
68942;SDS011;60852;52.190;4.422;2024-03-07T08:55:03;55.99;;;53.95;;
68942;SDS011;60852;52.190;4.422;2024-03-07T08:57:30;57.04;;;54.80;;
68942;SDS011;60852;52.190;4.422;2024-03-07T08:59:55;56.67;;;54.27;;
68942;SDS011;60852;52.190;4.422;2024-03-07T09:02:21;54.88;;;53.11;;
68942;SDS011;60852;52.190;4.422;2024-03-07T09:04:48;52.87;;;51.03;;
68942;SDS011;60852;52.190;4.422;2024-03-07T09:07:13;52.66;;;50.70;;
68942;SDS011;60852;52.190;4.422;2024-03-07T09:09:40;49.80;;;48.37;;
68942;SDS011;60852;52.190;4.422;2024-03-07T09:12:08;49.71;;;48.11;;
68942;SDS011;60852;52.190;4.422;2024-03-07T09:14:34;48.54;;;46.90;;
68942;SDS011;60852;52.190;4.422;2024-03-07T09:17:00;48.50;;;46.59;;
68942;SDS011;60852;52.190;4.422;2024-03-07T09:19:26;48.35;;;46.74;;
68942;SDS011;60852;52.190;4.422;2024-03-07T09:21:52;47.45;;;45.99;;
68942;SDS011;60852;52.190;4.422;2024-03-07T09:24:18;47.50;;;45.90;;
68942;SDS011;60852;52.190;4.422;2024-03-07T09:26:47;45.36;;;43.81;;
68942;SDS011;60852;52.190;4.422;2024-03-07T09:29:17;45.71;;;43.85;;
68942;SDS011;60852;52.190;4.422;2024-03-07T09:31:43;45.17;;;43.59;;
68942;SDS011;60852;52.190;4.422;2024-03-07T09:34:14;44.65;;;43.01;;
68942;SDS011;60852;52.190;4.422;2024-03-07T09:36:40;43.73;;;42.24;;
68942;SDS011;60852;52.190;4.422;2024-03-07T09:39:08;44.05;;;42.42;;
68942;SDS011;60852;52.190;4.422;2024-03-07T09:41:34;43.07;;;41.73;;
68942;SDS011;60852;52.190;4.422;2024-03-07T09:44:00;42.93;;;41.23;;
68942;SDS011;60852;52.190;4.422;2024-03-07T09:46:27;41.81;;;40.38;;
68942;SDS011;60852;52.190;4.422;2024-03-07T09:48:53;39.29;;;38.16;;
68942;SDS011;60852;52.190;4.422;2024-03-07T09:51:20;40.12;;;38.85;;
68942;SDS011;60852;52.190;4.422;2024-03-07T09:53:46;39.55;;;38.35;;
68942;SDS011;60852;52.190;4.422;2024-03-07T09:56:17;39.67;;;38.29;;
68942;SDS011;60852;52.190;4.422;2024-03-07T09:58:49;39.25;;;37.76;;
68942;SDS011;60852;52.190;4.422;2024-03-07T10:01:19;39.01;;;37.67;;
68942;SDS011;60852;52.190;4.422;2024-03-07T10:03:47;38.19;;;36.91;;
68942;SDS011;60852;52.190;4.422;2024-03-07T10:06:15;38.34;;;37.04;;
68942;SDS011;60852;52.190;4.422;2024-03-07T10:08:41;37.25;;;36.14;;
68942;SDS011;60852;52.190;4.422;2024-03-07T10:11:07;35.29;;;34.52;;
68942;SDS011;60852;52.190;4.422;2024-03-07T10:13:34;35.05;;;33.79;;
68942;SDS011;60852;52.190;4.422;2024-03-07T10:16:03;36.05;;;34.52;;
68942;SDS011;60852;52.190;4.422;2024-03-07T10:18:30;35.32;;;33.96;;
68942;SDS011;60852;52.190;4.422;2024-03-07T10:20:57;35.09;;;34.01;;
68942;SDS011;60852;52.190;4.422;2024-03-07T10:23:23;34.45;;;33.59;;
68942;SDS011;60852;52.190;4.422;2024-03-07T10:25:49;33.70;;;33.00;;
68942;SDS011;60852;52.190;4.422;2024-03-07T10:28:18;34.91;;;33.65;;
68942;SDS011;60852;52.190;4.422;2024-03-07T10:30:44;33.94;;;33.17;;
68942;SDS011;60852;52.190;4.422;2024-03-07T10:33:10;33.04;;;32.47;;
68942;SDS011;60852;52.190;4.422;2024-03-07T10:35:37;35.19;;;34.15;;
68942;SDS011;60852;52.190;4.422;2024-03-07T10:38:03;36.12;;;35.04;;
68942;SDS011;60852;52.190;4.422;2024-03-07T10:40:32;33.82;;;32.76;;
68942;SDS011;60852;52.190;4.422;2024-03-07T10:42:58;30.58;;;29.85;;
68942;SDS011;60852;52.190;4.422;2024-03-07T10:45:28;31.60;;;30.58;;
68942;SDS011;60852;52.190;4.422;2024-03-07T10:47:55;30.83;;;29.99;;
68942;SDS011;60852;52.190;4.422;2024-03-07T10:58:42;31.01;;;29.89;;
68942;SDS011;60852;52.190;4.422;2024-03-07T11:01:45;30.92;;;29.81;;
68942;SDS011;60852;52.190;4.422;2024-03-07T11:04:19;30.32;;;29.62;;
68942;SDS011;60852;52.190;4.422;2024-03-07T11:06:48;29.52;;;29.15;;
68942;SDS011;60852;52.190;4.422;2024-03-07T11:09:15;29.67;;;29.46;;
68942;SDS011;60852;52.190;4.422;2024-03-07T11:11:48;30.89;;;30.22;;
68942;SDS011;60852;52.190;4.422;2024-03-07T11:14:14;29.91;;;29.24;;
68942;SDS011;60852;52.190;4.422;2024-03-07T11:16:42;29.25;;;28.69;;
68942;SDS011;60852;52.190;4.422;2024-03-07T11:21:59;28.80;;;28.23;;
68942;SDS011;60852;52.190;4.422;2024-03-07T11:24:27;27.07;;;27.01;;
68942;SDS011;60852;52.190;4.422;2024-03-07T11:27:02;27.82;;;27.64;;
68942;SDS011;60852;52.190;4.422;2024-03-07T11:32:17;27.48;;;27.05;;
68942;SDS011;60852;52.190;4.422;2024-03-07T11:34:46;27.04;;;26.68;;
68942;SDS011;60852;52.190;4.422;2024-03-07T11:37:58;27.53;;;26.98;;
68942;SDS011;60852;52.190;4.422;2024-03-07T11:42:52;27.23;;;26.58;;
68942;SDS011;60852;52.190;4.422;2024-03-07T11:45:21;28.09;;;27.23;;
68942;SDS011;60852;52.190;4.422;2024-03-07T11:47:50;27.60;;;27.34;;
68942;SDS011;60852;52.190;4.422;2024-03-07T11:50:28;27.97;;;27.57;;
68942;SDS011;60852;52.190;4.422;2024-03-07T11:52:57;30.03;;;28.67;;
68942;SDS011;60852;52.190;4.422;2024-03-07T11:55:22;30.89;;;29.75;;
68942;SDS011;60852;52.190;4.422;2024-03-07T11:57:51;31.52;;;30.77;;
68942;SDS011;60852;52.190;4.422;2024-03-07T12:00:20;27.40;;;26.72;;
68942;SDS011;60852;52.190;4.422;2024-03-07T12:02:49;29.70;;;28.75;;
68942;SDS011;60852;52.190;4.422;2024-03-07T12:05:14;29.21;;;28.40;;
68942;SDS011;60852;52.190;4.422;2024-03-07T12:07:41;29.83;;;28.96;;
68942;SDS011;60852;52.190;4.422;2024-03-07T12:10:08;28.01;;;27.50;;
68942;SDS011;60852;52.190;4.422;2024-03-07T12:12:35;29.12;;;28.10;;
68942;SDS011;60852;52.190;4.422;2024-03-07T12:15:04;28.51;;;27.61;;
68942;SDS011;60852;52.190;4.422;2024-03-07T12:17:41;28.75;;;27.66;;
68942;SDS011;60852;52.190;4.422;2024-03-07T12:20:08;27.44;;;26.38;;
68942;SDS011;60852;52.190;4.422;2024-03-07T12:22:50;27.27;;;26.27;;
68942;SDS011;60852;52.190;4.422;2024-03-07T12:25:18;27.92;;;26.91;;
68942;SDS011;60852;52.190;4.422;2024-03-07T12:27:47;28.83;;;27.69;;
68942;SDS011;60852;52.190;4.422;2024-03-07T12:30:25;28.81;;;27.88;;
68942;SDS011;60852;52.190;4.422;2024-03-07T12:32:55;30.88;;;29.69;;
68942;SDS011;60852;52.190;4.422;2024-03-07T12:35:20;29.45;;;28.52;;
68942;SDS011;60852;52.190;4.422;2024-03-07T12:37:47;29.52;;;28.33;;
68942;SDS011;60852;52.190;4.422;2024-03-07T12:40:13;29.65;;;28.63;;
68942;SDS011;60852;52.190;4.422;2024-03-07T12:42:50;28.76;;;27.87;;
68942;SDS011;60852;52.190;4.422;2024-03-07T12:45:18;28.95;;;27.99;;
68942;SDS011;60852;52.190;4.422;2024-03-07T12:47:46;29.90;;;28.96;;
68942;SDS011;60852;52.190;4.422;2024-03-07T12:50:21;29.08;;;28.08;;
68942;SDS011;60852;52.190;4.422;2024-03-07T12:52:47;28.70;;;27.50;;
68942;SDS011;60852;52.190;4.422;2024-03-07T12:55:17;28.47;;;27.49;;
68942;SDS011;60852;52.190;4.422;2024-03-07T12:57:49;29.69;;;28.48;;
68942;SDS011;60852;52.190;4.422;2024-03-07T13:00:17;27.32;;;26.52;;
68942;SDS011;60852;52.190;4.422;2024-03-07T13:02:46;26.93;;;26.11;;
68942;SDS011;60852;52.190;4.422;2024-03-07T13:05:12;27.50;;;26.50;;
68942;SDS011;60852;52.190;4.422;2024-03-07T13:07:46;29.04;;;27.75;;
68942;SDS011;60852;52.190;4.422;2024-03-07T13:10:16;27.82;;;26.87;;
68942;SDS011;60852;52.190;4.422;2024-03-07T13:12:44;28.33;;;27.39;;
68942;SDS011;60852;52.190;4.422;2024-03-07T13:15:17;28.36;;;27.45;;
68942;SDS011;60852;52.190;4.422;2024-03-07T13:17:46;27.92;;;27.09;;
68942;SDS011;60852;52.190;4.422;2024-03-07T13:20:14;28.07;;;27.20;;
68942;SDS011;60852;52.190;4.422;2024-03-07T13:22:40;28.13;;;27.30;;
68942;SDS011;60852;52.190;4.422;2024-03-07T13:25:08;28.42;;;27.45;;
68942;SDS011;60852;52.190;4.422;2024-03-07T13:27:43;28.39;;;27.39;;
68942;SDS011;60852;52.190;4.422;2024-03-07T13:30:16;28.93;;;28.05;;
68942;SDS011;60852;52.190;4.422;2024-03-07T13:32:48;28.92;;;27.93;;
68942;SDS011;60852;52.190;4.422;2024-03-07T13:35:15;29.26;;;27.85;;
68942;SDS011;60852;52.190;4.422;2024-03-07T13:37:41;27.92;;;26.98;;
68942;SDS011;60852;52.190;4.422;2024-03-07T13:40:06;28.27;;;27.47;;
68942;SDS011;60852;52.190;4.422;2024-03-07T13:42:58;29.96;;;28.83;;
68942;SDS011;60852;52.190;4.422;2024-03-07T13:45:26;27.84;;;26.83;;
68942;SDS011;60852;52.190;4.422;2024-03-07T13:47:54;27.52;;;26.60;;
68942;SDS011;60852;52.190;4.422;2024-03-07T13:50:21;26.41;;;25.70;;
68942;SDS011;60852;52.190;4.422;2024-03-07T13:52:49;26.00;;;25.26;;
68942;SDS011;60852;52.190;4.422;2024-03-07T14:12:21;24.73;;;23.97;;
68942;SDS011;60852;52.190;4.422;2024-03-07T14:27:08;24.94;;;24.39;;
68942;SDS011;60852;52.190;4.422;2024-03-07T14:32:28;27.73;;;26.65;;
68942;SDS011;60852;52.190;4.422;2024-03-07T14:37:43;24.74;;;23.89;;
68942;SDS011;60852;52.190;4.422;2024-03-07T14:40:16;24.68;;;24.02;;
68942;SDS011;60852;52.190;4.422;2024-03-07T14:42:43;24.24;;;23.65;;
68942;SDS011;60852;52.190;4.422;2024-03-07T14:45:12;25.38;;;24.58;;
68942;SDS011;60852;52.190;4.422;2024-03-07T14:47:45;23.80;;;23.17;;
68942;SDS011;60852;52.190;4.422;2024-03-07T14:50:14;24.07;;;23.41;;
68942;SDS011;60852;52.190;4.422;2024-03-07T14:52:42;24.59;;;23.61;;
68942;SDS011;60852;52.190;4.422;2024-03-07T14:55:08;24.11;;;23.14;;
68942;SDS011;60852;52.190;4.422;2024-03-07T14:57:38;24.45;;;23.58;;
68942;SDS011;60852;52.190;4.422;2024-03-07T15:00:04;25.34;;;24.37;;
68942;SDS011;60852;52.190;4.422;2024-03-07T15:02:42;25.50;;;24.57;;
68942;SDS011;60852;52.190;4.422;2024-03-07T15:05:12;24.82;;;24.28;;
68942;SDS011;60852;52.190;4.422;2024-03-07T15:07:39;24.89;;;24.00;;
68942;SDS011;60852;52.190;4.422;2024-03-07T15:10:06;24.77;;;23.88;;
68942;SDS011;60852;52.190;4.422;2024-03-07T15:12:47;25.48;;;24.42;;
68942;SDS011;60852;52.190;4.422;2024-03-07T15:15:13;25.64;;;24.72;;
68942;SDS011;60852;52.190;4.422;2024-03-07T15:17:42;24.95;;;24.44;;
68942;SDS011;60852;52.190;4.422;2024-03-07T15:20:11;27.14;;;26.39;;